Time;durP1;ratioP1;P1;durP2;ratioP2;P2;SDS_P1;SDS_P2;PMS_P1;PMS_P2;Temp;Humidity;BMP_temperature;BMP_pressure;BME280_temperature;BME280_humidity;BME280_pressure;Samples;Min_cycle;Max_cycle;Signal;HPM_P1;HPM_P2
2022/11/13 00:00:24;;;;;;;;;;;8.30;99.90;;;;;;5012249;28;20343;-76
2022/11/13 00:02:49;;;;;;;;;;;8.30;99.90;;;;;;5002525;28;19920;-76
2022/11/13 00:05:15;;;;;;;;;;;8.40;99.90;;;;;;5013168;28;19917;-77
2022/11/13 00:07:40;;;;;;;;;;;8.40;99.90;;;;;;5003895;28;20286;-77
2022/11/13 00:10:06;;;;;;;;;;;8.40;99.90;;;;;;5008640;28;19983;-77
2022/11/13 00:12:32;;;;;;;;;;;8.40;99.90;;;;;;5006957;28;19960;-77
2022/11/13 00:14:57;;;;;;;;;;;8.40;99.90;;;;;;5008983;28;20124;-77
2022/11/13 00:17:22;;;;;;;;;;;8.40;99.90;;;;;;5003737;28;19921;-77
2022/11/13 00:19:48;;;;;;;;;;;8.40;99.90;;;;;;5010112;28;19913;-77
2022/11/13 00:22:14;;;;;;;;;;;8.50;99.90;;;;;;5007400;28;19932;-77
2022/11/13 00:24:39;;;;;;;;;;;8.40;99.90;;;;;;5013185;28;19918;-77
2022/11/13 00:27:05;;;;;;;;;;;8.40;99.90;;;;;;5015636;28;19924;-77
2022/11/13 00:29:31;;;;;;;;;;;8.40;99.90;;;;;;5015444;28;19956;-77
2022/11/13 00:31:56;;;;;;;;;;;8.40;99.90;;;;;;4995251;28;19922;-77
2022/11/13 00:34:22;;;;;;;;;;;8.50;99.90;;;;;;5018046;28;19967;-77
2022/11/13 00:36:47;;;;;;;;;;;8.50;99.90;;;;;;5009520;28;19917;-77
2022/11/13 00:39:12;;;;;;;;;;;8.60;99.90;;;;;;5001665;28;19917;-77
2022/11/13 00:41:38;;;;;;;;;;;8.60;99.90;;;;;;5012669;28;20011;-76
2022/11/13 00:44:03;;;;;;;;;;;8.60;99.90;;;;;;5005909;28;19920;-77
2022/11/13 00:46:29;;;;;;;;;;;8.60;99.90;;;;;;5017152;28;19947;-77
2022/11/13 00:48:54;;;;;;;;;;;8.60;99.90;;;;;;5007342;28;19920;-77
2022/11/13 00:51:20;;;;;;;;;;;8.50;99.90;;;;;;5011354;28;19918;-77
2022/11/13 00:53:46;;;;;;;;;;;8.60;99.90;;;;;;5000564;28;19968;-77
2022/11/13 00:56:11;;;;;;;;;;;8.60;99.90;;;;;;4998042;28;20368;-77
2022/11/13 00:58:36;;;;;;;;;;;8.60;99.90;;;;;;5004509;28;19917;-77
2022/11/13 01:01:06;;;;;;;;;;;8.60;99.90;;;;;;4995727;28;20000;-77
2022/11/13 01:03:31;;;;;;;;;;;8.60;99.90;;;;;;5000751;28;19979;-77
2022/11/13 01:05:57;;;;;;;;;;;8.70;99.90;;;;;;5011195;28;19923;-77
2022/11/13 01:08:22;;;;;;;;;;;8.70;99.90;;;;;;5019824;28;19960;-77
2022/11/13 01:10:56;;;;;;;;;;;8.70;99.90;;;;;;5009903;28;20012;-76
2022/11/13 01:13:22;;;;;;;;;;;8.70;99.90;;;;;;5006230;28;19953;-76
2022/11/13 01:15:47;;;;;;;;;;;8.70;99.90;;;;;;5008766;28;20338;-76
2022/11/13 01:18:13;;;;;;;;;;;8.70;99.90;;;;;;4999488;28;19924;-76
2022/11/13 01:20:38;;;;;;;;;;;8.70;99.90;;;;;;4998917;28;19939;-75
2022/11/13 01:23:03;;;;;;;;;;;8.80;99.90;;;;;;5007101;28;20105;-75
2022/11/13 01:25:29;;;;;;;;;;;8.80;99.90;;;;;;5009647;28;20535;-76
2022/11/13 01:27:55;;;;;;;;;;;8.80;99.90;;;;;;5005876;28;19921;-76
2022/11/13 01:30:20;;;;;;;;;;;8.70;99.90;;;;;;5002434;28;19993;-76
2022/11/13 01:32:45;;;;;;;;;;;8.70;99.90;;;;;;5006380;28;20400;-76
2022/11/13 01:35:11;;;;;;;;;;;8.80;99.90;;;;;;5016733;28;19922;-75
2022/11/13 01:37:36;;;;;;;;;;;8.80;99.90;;;;;;5013375;28;19913;-75
2022/11/13 01:40:02;;;;;;;;;;;8.80;99.90;;;;;;5005997;28;19917;-76
2022/11/13 01:42:27;;;;;;;;;;;8.90;99.90;;;;;;5008509;28;19913;-76
2022/11/13 01:44:54;;;;;;;;;;;8.80;99.90;;;;;;5004025;28;20272;-75
2022/11/13 01:47:20;;;;;;;;;;;8.80;99.90;;;;;;5013693;28;19964;-76
2022/11/13 01:49:46;;;;;;;;;;;8.80;99.90;;;;;;5013960;28;20337;-76
2022/11/13 01:52:14;;;;;;;;;;;8.80;99.90;;;;;;4994043;28;20603;-76
2022/11/13 01:54:44;;;;;;;;;;;8.90;99.90;;;;;;5011739;28;19921;-75
2022/11/13 01:57:11;;;;;;;;;;;8.90;99.90;;;;;;5005042;28;19917;-76
2022/11/13 01:59:38;;;;;;;;;;;8.90;99.90;;;;;;5006255;28;19941;-76
2022/11/13 02:02:04;;;;;;;;;;;8.90;99.90;;;;;;5006684;28;19913;-77
2022/11/13 02:04:30;;;;;;;;;;;8.90;99.90;;;;;;5023892;28;20036;-76
2022/11/13 02:07:06;;;;;;;;;;;8.90;99.90;;;;;;5005992;28;19921;-76
2022/11/13 02:09:37;;;;;;;;;;;8.90;99.90;;;;;;5011560;28;19960;-76
2022/11/13 02:12:04;;;;;;;;;;;9.00;99.90;;;;;;5005439;28;19960;-76
2022/11/13 02:14:30;;;;;;;;;;;9.00;99.90;;;;;;5006854;28;19914;-76
2022/11/13 02:16:57;;;;;;;;;;;9.00;99.90;;;;;;5006723;28;20387;-76
2022/11/13 02:19:28;;;;;;;;;;;9.00;99.90;;;;;;5017370;28;19909;-76
2022/11/13 02:22:01;;;;;;;;;;;9.20;99.90;;;;;;5013616;28;19940;-76
2022/11/13 02:24:28;;;;;;;;;;;9.30;99.90;;;;;;5006813;28;19914;-77
2022/11/13 02:26:55;;;;;;;;;;;9.20;99.90;;;;;;5012848;28;19992;-76
2022/11/13 02:29:20;;;;;;;;;;;9.30;99.90;;;;;;4997879;28;19926;-77
2022/11/13 02:31:46;;;;;;;;;;;9.40;99.90;;;;;;5008840;28;20329;-76
2022/11/13 02:34:11;;;;;;;;;;;9.40;99.90;;;;;;5000336;28;20012;-76
2022/11/13 02:36:37;;;;;;;;;;;9.50;99.90;;;;;;5006905;28;19917;-77
2022/11/13 02:39:05;;;;;;;;;;;9.50;99.90;;;;;;5009480;28;20304;-76
2022/11/13 02:41:31;;;;;;;;;;;9.60;99.90;;;;;;5007500;28;19913;-76
2022/11/13 02:43:56;;;;;;;;;;;9.70;99.90;;;;;;5008735;28;20526;-76
2022/11/13 02:46:21;;;;;;;;;;;9.60;99.90;;;;;;5012258;28;19925;-76
2022/11/13 02:48:47;;;;;;;;;;;9.60;99.90;;;;;;5008925;28;19945;-76
2022/11/13 02:51:13;;;;;;;;;;;9.70;99.90;;;;;;5013323;28;19956;-76
2022/11/13 02:53:38;;;;;;;;;;;9.60;99.90;;;;;;5006811;28;20000;-74
2022/11/13 02:56:04;;;;;;;;;;;9.70;99.90;;;;;;5001986;28;19913;-75
2022/11/13 02:58:29;;;;;;;;;;;9.70;99.90;;;;;;5005465;28;19917;-75
2022/11/13 03:00:55;;;;;;;;;;;9.80;99.90;;;;;;5011211;28;20249;-76
2022/11/13 03:03:20;;;;;;;;;;;9.90;99.90;;;;;;5000647;28;20373;-76
2022/11/13 03:05:49;;;;;;;;;;;9.90;99.90;;;;;;5006856;28;19921;-76
2022/11/13 03:08:15;;;;;;;;;;;9.90;99.90;;;;;;5009076;28;19944;-76
2022/11/13 03:10:40;;;;;;;;;;;9.90;99.90;;;;;;5006572;28;19913;-77
2022/11/13 03:13:06;;;;;;;;;;;10.00;99.90;;;;;;5004227;28;19913;-75
2022/11/13 03:15:32;;;;;;;;;;;10.00;99.90;;;;;;5006636;28;20271;-75
2022/11/13 03:18:00;;;;;;;;;;;9.90;99.90;;;;;;4995099;28;19953;-75
2022/11/13 03:20:26;;;;;;;;;;;10.00;99.90;;;;;;5012419;28;20279;-75
2022/11/13 03:22:51;;;;;;;;;;;10.00;99.90;;;;;;5004094;28;19915;-74
2022/11/13 03:25:17;;;;;;;;;;;10.00;99.90;;;;;;5014142;28;19928;-75
2022/11/13 03:27:42;;;;;;;;;;;9.90;99.90;;;;;;5009193;28;19972;-75
2022/11/13 03:30:08;;;;;;;;;;;10.00;99.90;;;;;;5011562;28;19925;-75
2022/11/13 03:32:33;;;;;;;;;;;10.00;99.90;;;;;;5011068;28;19913;-75
2022/11/13 03:34:58;;;;;;;;;;;10.00;99.90;;;;;;5007820;28;20451;-75
2022/11/13 03:37:24;;;;;;;;;;;10.00;99.90;;;;;;5020133;28;19917;-75
2022/11/13 03:39:49;;;;;;;;;;;10.00;99.90;;;;;;5006232;28;19964;-75
2022/11/13 03:42:15;;;;;;;;;;;10.00;99.90;;;;;;5009415;28;20054;-75
2022/11/13 03:44:40;;;;;;;;;;;10.00;99.90;;;;;;5006846;28;19918;-75
2022/11/13 03:47:05;;;;;;;;;;;10.00;99.90;;;;;;5009011;28;19987;-75
2022/11/13 03:49:31;;;;;;;;;;;10.00;99.90;;;;;;5007263;28;19913;-76
2022/11/13 03:51:56;;;;;;;;;;;9.90;99.90;;;;;;5002319;28;19909;-76
2022/11/13 03:54:22;;;;;;;;;;;9.90;99.90;;;;;;5013727;28;19943;-76
2022/11/13 03:56:47;;;;;;;;;;;9.80;99.90;;;;;;5003113;28;19917;-75
2022/11/13 03:59:13;;;;;;;;;;;9.90;99.90;;;;;;5010516;28;19913;-76
2022/11/13 04:01:38;;;;;;;;;;;9.90;99.90;;;;;;5004427;28;20292;-76
2022/11/13 04:04:04;;;;;;;;;;;9.90;99.90;;;;;;5003503;28;19913;-76
2022/11/13 04:06:29;;;;;;;;;;;10.00;99.90;;;;;;5009583;28;19989;-76
2022/11/13 04:08:54;;;;;;;;;;;10.00;99.90;;;;;;5011079;28;19971;-76
2022/11/13 04:11:20;;;;;;;;;;;10.00;99.90;;;;;;5007887;28;20005;-76
2022/11/13 04:13:45;;;;;;;;;;;10.10;99.90;;;;;;5009298;28;19917;-76
2022/11/13 04:16:11;;;;;;;;;;;10.10;99.90;;;;;;5007848;28;20335;-75
2022/11/13 04:18:36;;;;;;;;;;;10.10;99.90;;;;;;5015835;28;19917;-76
2022/11/13 04:21:03;;;;;;;;;;;10.00;99.90;;;;;;5001614;28;19920;-76
2022/11/13 04:23:52;;;;;;;;;;;10.00;99.90;;;;;;5007800;28;19913;-76
2022/11/13 04:26:26;;;;;;;;;;;10.00;99.90;;;;;;5005519;28;19930;-76
2022/11/13 04:28:51;;;;;;;;;;;10.00;99.90;;;;;;5016814;28;19920;-75
2022/11/13 04:31:16;;;;;;;;;;;10.00;99.90;;;;;;5013271;28;20333;-76
2022/11/13 04:33:42;;;;;;;;;;;10.00;99.90;;;;;;5003181;28;20273;-76
2022/11/13 04:36:07;;;;;;;;;;;10.00;99.90;;;;;;5013398;28;20369;-76
2022/11/13 04:38:33;;;;;;;;;;;10.00;99.90;;;;;;5017512;28;19909;-76
2022/11/13 04:43:42;;;;;;;;;;;9.90;99.90;;;;;;5000469;28;19929;-76
2022/11/13 04:46:08;;;;;;;;;;;10.00;99.90;;;;;;4996165;28;19917;-76
2022/11/13 04:48:33;;;;;;;;;;;10.00;99.90;;;;;;5005590;28;20699;-76
2022/11/13 04:50:59;;;;;;;;;;;10.00;99.90;;;;;;5007703;28;19921;-76
2022/11/13 04:53:24;;;;;;;;;;;10.00;99.90;;;;;;5005642;28;19924;-76
2022/11/13 04:55:51;;;;;;;;;;;9.90;99.90;;;;;;5000212;28;19913;-76
2022/11/13 04:58:17;;;;;;;;;;;9.90;99.90;;;;;;5011241;28;19953;-76
2022/11/13 05:00:42;;;;;;;;;;;9.90;99.90;;;;;;5008206;28;19983;-76
2022/11/13 05:03:07;;;;;;;;;;;9.90;99.90;;;;;;5006915;28;19945;-76
2022/11/13 05:05:33;;;;;;;;;;;9.90;99.90;;;;;;5006716;28;19921;-76
2022/11/13 05:07:58;;;;;;;;;;;10.00;99.90;;;;;;5013599;28;19914;-76
2022/11/13 05:10:24;;;;;;;;;;;10.00;99.90;;;;;;5012068;28;19917;-75
2022/11/13 05:12:49;;;;;;;;;;;10.00;99.90;;;;;;5026532;28;19909;-76
2022/11/13 05:15:15;;;;;;;;;;;10.10;99.90;;;;;;5013051;28;19976;-75
2022/11/13 05:17:40;;;;;;;;;;;10.00;99.90;;;;;;5007221;28;20400;-76
2022/11/13 05:20:06;;;;;;;;;;;10.00;99.90;;;;;;5023777;28;19923;-76
2022/11/13 05:22:31;;;;;;;;;;;10.10;99.90;;;;;;5010539;28;20300;-76
2022/11/13 05:24:56;;;;;;;;;;;10.10;99.90;;;;;;5010315;28;20415;-76
2022/11/13 05:27:22;;;;;;;;;;;10.00;99.90;;;;;;5008104;28;20284;-75
2022/11/13 05:29:47;;;;;;;;;;;10.00;99.90;;;;;;5017444;28;19929;-76
2022/11/13 05:32:13;;;;;;;;;;;10.10;99.90;;;;;;5012709;28;19925;-75
2022/11/13 05:34:38;;;;;;;;;;;10.00;99.90;;;;;;5013011;28;19917;-75
2022/11/13 05:37:03;;;;;;;;;;;10.10;99.90;;;;;;5005298;28;19953;-76
2022/11/13 05:39:29;;;;;;;;;;;10.10;99.90;;;;;;5011796;28;19995;-76
2022/11/13 05:41:54;;;;;;;;;;;10.10;99.90;;;;;;5004882;28;19918;-76
2022/11/13 05:44:20;;;;;;;;;;;10.10;99.90;;;;;;5009600;28;20328;-75
2022/11/13 05:46:45;;;;;;;;;;;10.10;99.90;;;;;;5002656;28;20351;-76
2022/11/13 05:49:10;;;;;;;;;;;10.00;99.90;;;;;;5011678;28;19960;-76
2022/11/13 05:51:36;;;;;;;;;;;10.10;99.90;;;;;;5012706;28;19914;-76
2022/11/13 05:54:01;;;;;;;;;;;10.00;99.90;;;;;;5019798;28;19917;-76
2022/11/13 05:56:28;;;;;;;;;;;10.00;99.90;;;;;;5008214;28;19914;-76
2022/11/13 05:58:54;;;;;;;;;;;10.00;99.90;;;;;;5010251;28;19929;-76
2022/11/13 06:01:24;;;;;;;;;;;10.00;99.90;;;;;;5009279;28;19913;-76
2022/11/13 06:03:50;;;;;;;;;;;10.00;99.90;;;;;;5004129;28;19929;-76
2022/11/13 06:06:17;;;;;;;;;;;10.00;99.90;;;;;;4999349;28;19921;-76
2022/11/13 06:08:43;;;;;;;;;;;10.00;99.90;;;;;;5009167;28;19920;-76
2022/11/13 06:11:10;;;;;;;;;;;10.00;99.90;;;;;;5012464;28;19918;-76
2022/11/13 06:13:35;;;;;;;;;;;10.00;99.90;;;;;;5014347;28;20353;-75
2022/11/13 06:16:02;;;;;;;;;;;10.00;99.90;;;;;;5004082;28;19921;-76
2022/11/13 06:18:27;;;;;;;;;;;10.00;99.90;;;;;;5016576;28;19913;-76
2022/11/13 06:20:53;;;;;;;;;;;10.10;99.90;;;;;;5025820;28;19922;-76
2022/11/13 06:23:18;;;;;;;;;;;10.10;99.90;;;;;;5014753;28;20263;-76
2022/11/13 06:25:44;;;;;;;;;;;10.00;99.90;;;;;;5011210;28;20387;-76
2022/11/13 06:28:09;;;;;;;;;;;10.10;99.90;;;;;;5002755;28;20003;-76
2022/11/13 06:30:35;;;;;;;;;;;10.00;99.90;;;;;;5004645;28;19980;-75
2022/11/13 06:33:00;;;;;;;;;;;10.10;99.90;;;;;;5010206;28;20356;-75
2022/11/13 06:35:26;;;;;;;;;;;10.10;99.90;;;;;;5008383;28;19928;-75
2022/11/13 06:37:53;;;;;;;;;;;10.20;99.90;;;;;;5006127;28;19913;-75
2022/11/13 06:40:18;;;;;;;;;;;10.20;99.90;;;;;;5002018;28;19952;-75
2022/11/13 06:42:43;;;;;;;;;;;10.20;99.90;;;;;;5007648;28;20004;-75
2022/11/13 06:45:09;;;;;;;;;;;10.00;99.90;;;;;;5013386;28;20375;-74
2022/11/13 06:47:34;;;;;;;;;;;10.10;99.90;;;;;;5014350;28;19920;-75
2022/11/13 06:50:00;;;;;;;;;;;10.20;99.90;;;;;;5003867;28;20422;-75
2022/11/13 06:52:25;;;;;;;;;;;10.10;99.90;;;;;;5012806;28;19917;-75
2022/11/13 06:54:51;;;;;;;;;;;10.10;99.90;;;;;;5000301;28;19913;-75
2022/11/13 06:57:16;;;;;;;;;;;10.10;99.90;;;;;;5013246;28;19963;-75
2022/11/13 06:59:42;;;;;;;;;;;10.00;99.90;;;;;;5013064;28;19990;-75
2022/11/13 07:02:08;;;;;;;;;;;10.10;99.90;;;;;;5001492;28;19918;-75
2022/11/13 07:04:34;;;;;;;;;;;10.10;99.90;;;;;;5000071;28;19917;-75
2022/11/13 07:06:59;;;;;;;;;;;10.10;99.90;;;;;;5008896;28;19922;-75
2022/11/13 07:09:24;;;;;;;;;;;10.10;99.90;;;;;;5012733;28;19957;-75
2022/11/13 07:11:50;;;;;;;;;;;10.10;99.90;;;;;;5003453;28;20027;-76
2022/11/13 07:14:15;;;;;;;;;;;10.20;99.90;;;;;;5007238;28;19920;-76
2022/11/13 07:16:41;;;;;;;;;;;10.20;99.90;;;;;;5006177;28;20000;-76
2022/11/13 07:19:06;;;;;;;;;;;10.20;99.90;;;;;;5022543;28;19913;-76
2022/11/13 07:21:31;;;;;;;;;;;10.20;99.90;;;;;;5009106;28;20475;-76
2022/11/13 07:23:57;;;;;;;;;;;10.20;99.90;;;;;;5005658;28;19953;-76
2022/11/13 07:26:22;;;;;;;;;;;10.20;99.90;;;;;;5005852;28;20407;-76
2022/11/13 07:28:48;;;;;;;;;;;10.20;99.90;;;;;;5004580;28;19913;-76
2022/11/13 07:31:14;;;;;;;;;;;10.30;99.90;;;;;;5005679;28;19940;-76
2022/11/13 07:33:39;;;;;;;;;;;10.20;99.90;;;;;;5005990;28;19917;-77
2022/11/13 07:36:05;;;;;;;;;;;10.20;99.90;;;;;;5004083;28;20074;-76
2022/11/13 07:38:30;;;;;;;;;;;10.20;99.90;;;;;;5006142;28;21567;-75
2022/11/13 07:40:57;;;;;;;;;;;10.30;99.90;;;;;;5003594;28;19914;-76
2022/11/13 07:43:23;;;;;;;;;;;10.40;99.90;;;;;;5004405;28;19914;-77
2022/11/13 07:45:53;;;;;;;;;;;10.40;99.90;;;;;;5005899;28;19928;-79
2022/11/13 07:48:19;;;;;;;;;;;10.30;99.90;;;;;;5008159;28;19924;-76
2022/11/13 07:50:44;;;;;;;;;;;10.40;99.90;;;;;;5024605;28;19956;-77
2022/11/13 07:53:10;;;;;;;;;;;10.30;99.90;;;;;;5011658;28;20012;-77
2022/11/13 07:55:36;;;;;;;;;;;10.30;99.90;;;;;;5017610;28;19936;-76
2022/11/13 07:58:02;;;;;;;;;;;10.40;99.90;;;;;;5000089;28;20000;-76
2022/11/13 08:00:28;;;;;;;;;;;10.30;99.90;;;;;;5005434;28;20714;-76
2022/11/13 08:02:54;;;;;;;;;;;10.40;99.90;;;;;;5002806;28;19925;-79
2022/11/13 08:05:20;;;;;;;;;;;10.40;99.90;;;;;;5003223;28;19921;-78
2022/11/13 08:07:54;;;;;;;;;;;10.40;99.90;;;;;;5015900;28;19913;-76
2022/11/13 08:10:20;;;;;;;;;;;10.40;99.90;;;;;;5003420;28;19913;-78
2022/11/13 08:12:45;;;;;;;;;;;10.40;99.90;;;;;;4998633;28;19925;-82
2022/11/13 08:15:11;;;;;;;;;;;10.40;99.90;;;;;;5011124;28;19914;-78
2022/11/13 08:17:37;;;;;;;;;;;10.40;99.90;;;;;;5002823;28;20250;-76
2022/11/13 08:20:06;;;;;;;;;;;10.50;99.90;;;;;;5009174;28;20597;-79
2022/11/13 08:22:31;;;;;;;;;;;10.40;99.90;;;;;;5007878;28;20585;-78
2022/11/13 08:24:56;;;;;;;;;;;10.40;99.90;;;;;;5019591;28;20035;-77
2022/11/13 08:27:22;;;;;;;;;;;10.50;99.90;;;;;;5008241;28;19925;-79
2022/11/13 08:29:48;;;;;;;;;;;10.50;99.90;;;;;;5000422;28;19921;-76
2022/11/13 08:32:14;;;;;;;;;;;10.50;99.90;;;;;;5005580;28;20341;-77
2022/11/13 08:34:40;;;;;;;;;;;10.50;99.90;;;;;;5007844;28;20004;-76
2022/11/13 08:37:05;;;;;;;;;;;10.50;99.90;;;;;;5009359;28;20013;-75
2022/11/13 08:39:31;;;;;;;;;;;10.50;99.90;;;;;;5006700;28;19914;-75
2022/11/13 08:41:56;;;;;;;;;;;10.60;99.90;;;;;;4997189;28;19921;-75
2022/11/13 08:44:21;;;;;;;;;;;10.60;99.90;;;;;;5005727;28;19974;-76
2022/11/13 08:46:47;;;;;;;;;;;10.60;99.90;;;;;;5008137;28;19964;-77
2022/11/13 08:49:12;;;;;;;;;;;10.70;99.90;;;;;;5011228;28;20412;-77
2022/11/13 08:51:38;;;;;;;;;;;10.70;99.90;;;;;;5003552;28;19913;-76
2022/11/13 08:54:03;;;;;;;;;;;10.70;99.90;;;;;;5009917;28;19972;-76
2022/11/13 08:56:29;;;;;;;;;;;10.70;99.90;;;;;;5010953;28;19920;-76
2022/11/13 08:58:54;;;;;;;;;;;10.70;99.90;;;;;;5007991;28;19914;-79
2022/11/13 09:01:22;;;;;;;;;;;10.70;99.90;;;;;;5007364;28;20352;-75
2022/11/13 09:03:51;;;;;;;;;;;10.70;99.90;;;;;;5005121;28;19921;-75
2022/11/13 09:06:17;;;;;;;;;;;10.80;99.90;;;;;;5006047;28;19924;-74
2022/11/13 09:08:42;;;;;;;;;;;10.70;99.90;;;;;;5006815;28;19913;-73
2022/11/13 09:11:16;;;;;;;;;;;11.50;99.90;;;;;;5007233;28;20296;-75
2022/11/13 09:13:42;;;;;;;;;;;11.10;99.90;;;;;;5015850;28;20406;-75
2022/11/13 09:16:07;;;;;;;;;;;11.00;99.90;;;;;;5011468;28;19944;-74
2022/11/13 09:18:33;;;;;;;;;;;10.90;99.90;;;;;;5007638;28;20411;-75
2022/11/13 09:21:01;;;;;;;;;;;11.00;99.90;;;;;;5009784;28;20288;-75
2022/11/13 09:23:27;;;;;;;;;;;10.90;99.90;;;;;;5007019;28;20328;-75
2022/11/13 09:25:53;;;;;;;;;;;10.90;99.90;;;;;;5006674;28;20296;-75
2022/11/13 09:28:18;;;;;;;;;;;10.90;99.90;;;;;;5012642;28;19917;-75
2022/11/13 09:30:44;;;;;;;;;;;10.90;99.90;;;;;;5017332;28;20442;-75
2022/11/13 09:33:14;;;;;;;;;;;10.80;99.90;;;;;;5010210;28;20265;-75
2022/11/13 09:35:40;;;;;;;;;;;;;;;;;;5010097;28;20000;-75
2022/11/13 09:38:05;;;;;;;;;;;;;;;;;;5012137;28;20436;-75
2022/11/13 09:40:31;;;;;;;;;;;;;;;;;;5007888;28;20268;-75
2022/11/13 09:42:57;;;;;;;;;;;;;;;;;;5007412;28;19959;-75
2022/11/13 09:45:23;;;;;;;;;;;;;;;;;;5009898;28;19910;-74
2022/11/13 09:47:50;;;;;;;;;;;;;;;;;;5008676;28;19933;-74
2022/11/13 09:50:16;;;;;;;;;;;;;;;;;;5009611;28;19917;-74
2022/11/13 09:52:42;;;;;;;;;;;;;;;;;;5005028;28;20338;-74
2022/11/13 09:55:08;;;;;;;;;;;;;;;;;;5009419;28;20000;-75
2022/11/13 09:57:34;;;;;;;;;;;;;;;;;;5005946;28;20182;-75
2022/11/13 10:00:00;;;;;;;;;;;;;;;;;;5006838;28;19909;-74
2022/11/13 10:02:26;;;;;;;;;;;;;;;;;;5010790;28;20192;-75
2022/11/13 10:04:51;;;;;;;;;;;;;;;;;;5010498;28;19972;-75
2022/11/13 10:07:17;;;;;;;;;;;;;;;;;;5007900;28;20300;-74
2022/11/13 10:09:43;;;;;;;;;;;;;;;;;;5009048;28;20297;-75
2022/11/13 10:12:09;;;;;;;;;;;;;;;;;;5009185;28;20383;-75
2022/11/13 10:14:35;;;;;;;;;;;;;;;;;;5008040;28;20882;-75
2022/11/13 10:17:01;;;;;;;;;;;;;;;;;;5009580;28;19971;-74
2022/11/13 10:19:26;;;;;;;;;;;;;;;;;;5002060;28;19940;-74
2022/11/13 10:21:52;;;;;;;;;;;;;;;;;;5006088;28;20364;-75
2022/11/13 10:24:18;;;;;;;;;;;;;;;;;;5007955;28;19921;-75
2022/11/13 10:26:44;;;;;;;;;;;;;;;;;;5009741;28;19922;-75
2022/11/13 10:29:10;;;;;;;;;;;;;;;;;;5008099;28;19909;-75
2022/11/13 10:31:36;;;;;;;;;;;;;;;;;;5008865;28;19921;-75
2022/11/13 10:34:02;;;;;;;;;;;;;;;;;;5020198;28;19913;-75
2022/11/13 10:36:28;;;;;;;;;;;;;;;;;;5015686;28;20029;-74
2022/11/13 10:38:54;;;;;;;;;;;;;;;;;;5009808;28;19918;-74
2022/11/13 10:41:20;;;;;;;;;;;;;;;;;;5000535;28;19913;-74
2022/11/13 10:43:45;;;;;;;;;;;;;;;;;;5020664;28;19963;-74
2022/11/13 10:46:11;;;;;;;;;;;;;;;;;;5018796;28;19917;-74
2022/11/13 10:48:37;;;;;;;;;;;;;;;;;;5029237;28;19917;-75
2022/11/13 10:51:03;;;;;;;;;;;;;;;;;;5012456;28;20011;-75
2022/11/13 10:53:30;;;;;;;;;;;;;;;;;;5029222;28;19910;-74
2022/11/13 10:55:56;;;;;;;;;;;;;;;;;;5020081;28;20289;-75
2022/11/13 10:58:22;;;;;;;;;;;;;;;;;;5008473;28;19921;-74
2022/11/13 11:00:48;;;;;;;;;;;;;;;;;;5012694;28;19925;-74
2022/11/13 11:03:14;;;;;;;;;;;;;;;;;;5015712;28;19913;-75
2022/11/13 11:05:40;;;;;;;;;;;;;;;;;;5027186;28;19940;-74
2022/11/13 11:08:06;;;;;;;;;;;;;;;;;;5006900;28;20010;-74
2022/11/13 11:10:32;;;;;;;;;;;;;;;;;;5018592;28;19921;-75
2022/11/13 11:12:58;;;;;;;;;;;;;;;;;;5018387;28;19925;-75
2022/11/13 11:15:24;;;;;;;;;;;;;;;;;;5017757;28;19913;-74
2022/11/13 11:17:52;;;;;;;;;;;;;;;;;;5020191;28;19909;-75
2022/11/13 11:20:19;;;;;;;;;;;;;;;;;;5022882;28;19950;-74
2022/11/13 11:22:44;;;;;;;;;;;;;;;;;;5014456;28;20031;-74
2022/11/13 11:25:10;;;;;;;;;;;;;;;;;;5024555;28;20345;-74
2022/11/13 11:27:36;;;;;;;;;;;;;;;;;;5010606;28;19996;-74
2022/11/13 11:30:03;;;;;;;;;;;;;;;;;;5020690;28;19940;-75
2022/11/13 11:32:29;;;;;;;;;;;;;;;;;;4997322;28;19918;-74
2022/11/13 11:34:55;;;;;;;;;;;;;;;;;;5014938;28;19909;-74
2022/11/13 11:37:21;;;;;;;;;;;;;;;;;;5028717;28;19909;-75
2022/11/13 11:39:47;;;;;;;;;;;;;;;;;;5014401;28;19968;-74
2022/11/13 11:42:13;;;;;;;;;;;;;;;;;;5013112;28;19960;-74
2022/11/13 11:44:38;;;;;;;;;;;;;;;;;;5013511;28;19917;-74
2022/11/13 11:47:04;;;;;;;;;;;;;;;;;;5008860;28;20539;-74
2022/11/13 11:49:31;;;;;;;;;;;;;;;;;;5017860;28;20269;-74
2022/11/13 11:51:56;;;;;;;;;;;;;;;;;;5011614;28;20024;-75
2022/11/13 11:54:25;;;;;;;;;;;;;;;;;;5006776;28;20420;-75
2022/11/13 11:56:51;;;;;;;;;;;;;;;;;;5017402;28;19929;-74
2022/11/13 11:59:17;;;;;;;;;;;;;;;;;;5015179;28;19920;-75
2022/11/13 12:01:43;;;;;;;;;;;;;;;;;;5019678;28;19971;-75
2022/11/13 12:04:09;;;;;;;;;;;;;;;;;;5005364;28;19917;-74
2022/11/13 12:06:34;;;;;;;;;;;;;;;;;;5006489;28;19921;-74
2022/11/13 12:09:00;;;;;;;;;;;;;;;;;;5006958;28;19916;-75
2022/11/13 12:11:26;;;;;;;;;;;;;;;;;;5019272;28;19909;-75
2022/11/13 12:13:52;;;;;;;;;;;;;;;;;;5007709;28;19910;-75
2022/11/13 12:16:18;;;;;;;;;;;;;;;;;;5001284;28;20000;-75
2022/11/13 12:18:52;;;;;;;;;;;10.90;99.90;;;;;;5014789;28;19913;-76
2022/11/13 12:21:21;;;;;;;;;;;17.50;91.50;;;;;;5007353;28;19967;-76
2022/11/13 12:23:54;;;;;;;;;;;19.70;82.30;;;;;;5005452;28;19921;-76
2022/11/13 12:26:26;;;;;;;;;;;22.70;68.00;;;;;;5003893;28;19925;-76
2022/11/13 12:29:04;;;;;;;;;;;22.50;65.00;;;;;;5011029;28;19918;-76
2022/11/13 12:31:51;;;;;;;;;;;21.30;65.30;;;;;;4998974;28;19933;-75
2022/11/13 12:34:27;;;;;;;;;;;21.70;63.20;;;;;;5001257;28;20028;-76
2022/11/13 12:36:53;;;;;;;;;;;21.50;62.10;;;;;;5003432;28;20387;-75
2022/11/13 12:39:28;;;;;;;;;;;19.80;69.40;;;;;;5010074;28;19913;-75
2022/11/13 12:42:13;;;;;;;;;;;20.70;67.60;;;;;;5004457;28;20436;-76
2022/11/13 12:44:45;;;;;;;;;;;21.60;63.00;;;;;;4995223;28;19921;-77
2022/11/13 12:47:11;;;;;;;;;;;21.80;61.10;;;;;;5007054;28;20033;-78
2022/11/13 12:49:36;;;;;;;;;;;21.40;63.30;;;;;;5003393;28;20023;-74
2022/11/13 12:52:14;;;;;;;;;;;20.60;65.30;;;;;;5006123;28;19913;-73
2022/11/13 12:54:40;;;;;;;;;;;21.10;64.10;;;;;;5000368;28;20527;-75
2022/11/13 12:57:11;;;;;;;;;;;19.40;67.50;;;;;;5010876;28;19997;-77
2022/11/13 12:59:41;;;;;;;;;;;16.90;76.10;;;;;;5007502;28;19913;-73
2022/11/13 13:02:07;;;;;;;;;;;15.10;85.80;;;;;;5006428;28;19917;-76
2022/11/13 13:04:39;;;;;;;;;;;14.20;91.20;;;;;;5004547;28;20044;-76
2022/11/13 13:07:04;;;;;;;;;;;13.80;93.20;;;;;;4989429;28;20297;-76
2022/11/13 13:09:49;;;;;;;;;;;13.90;94.00;;;;;;5005277;28;19917;-76
2022/11/13 13:12:40;;;;;;;;;;;13.90;94.50;;;;;;5011963;28;19912;-72
2022/11/13 13:15:24;;;;;;;;;;;13.70;95.50;;;;;;5008246;28;20002;-75
2022/11/13 13:18:00;;;;;;;;;;;14.10;95.30;;;;;;5004489;28;20386;-74
2022/11/13 13:20:31;;;;;;;;;;;13.30;97.00;;;;;;5005736;28;19914;-74
2022/11/13 13:22:58;;;;;;;;;;;12.90;99.00;;;;;;5013640;28;19914;-75
2022/11/13 13:25:25;;;;;;;;;;;12.60;99.90;;;;;;5005598;28;19975;-76
2022/11/13 13:28:20;;;;;;;;;;;12.50;99.90;;;;;;5005325;28;20390;-77
2022/11/13 13:30:45;;;;;;;;;;;;;;;;;;5007763;28;19925;-75
2022/11/13 13:33:11;;;;;;;;;;;;;;;;;;4995168;28;19981;-77
2022/11/13 13:35:37;;;;;;;;;;;;;;;;;;5005055;28;19960;-77
2022/11/13 13:38:03;;;;;;;;;;;;;;;;;;5002089;28;19956;-76
2022/11/13 13:40:29;;;;;;;;;;;;;;;;;;5003894;28;19955;-76
2022/11/13 13:42:55;;;;;;;;;;;;;;;;;;5008305;28;19917;-76
2022/11/13 13:45:21;;;;;;;;;;;;;;;;;;5001314;28;19914;-76
2022/11/13 13:47:46;;;;;;;;;;;;;;;;;;5009714;28;19917;-75
2022/11/13 13:50:12;;;;;;;;;;;;;;;;;;4999873;28;19928;-76
2022/11/13 13:52:38;;;;;;;;;;;;;;;;;;5002718;28;19972;-76
2022/11/13 13:55:04;;;;;;;;;;;;;;;;;;5013194;28;19940;-80
2022/11/13 13:57:30;;;;;;;;;;;;;;;;;;5010550;28;19937;-75
2022/11/13 13:59:56;;;;;;;;;;;;;;;;;;5003668;28;20396;-77
2022/11/13 14:02:25;;;;;;;;;;;;;;;;;;4997987;28;21736;-76
2022/11/13 14:04:50;;;;;;;;;;;;;;;;;;4996678;28;20021;-75
2022/11/13 14:07:16;;;;;;;;;;;;;;;;;;5008943;28;20008;-74
2022/11/13 14:09:42;;;;;;;;;;;;;;;;;;5002682;28;19924;-75
2022/11/13 14:12:08;;;;;;;;;;;;;;;;;;5009591;28;19939;-73
2022/11/13 14:14:34;;;;;;;;;;;;;;;;;;5002783;28;19997;-73
2022/11/13 14:17:00;;;;;;;;;;;;;;;;;;5009414;28;20288;-72
2022/11/13 14:19:26;;;;;;;;;;;;;;;;;;5001788;28;19940;-74
2022/11/13 14:21:52;;;;;;;;;;;;;;;;;;5002455;28;20399;-73
2022/11/13 14:24:18;;;;;;;;;;;;;;;;;;5001297;28;19917;-76
2022/11/13 14:26:43;;;;;;;;;;;;;;;;;;5000513;28;19929;-77
2022/11/13 14:29:09;;;;;;;;;;;;;;;;;;5021127;28;19913;-77
2022/11/13 14:31:35;;;;;;;;;;;;;;;;;;5011220;28;19967;-77
2022/11/13 14:34:01;;;;;;;;;;;;;;;;;;5005038;28;19914;-77
2022/11/13 14:36:28;;;;;;;;;;;;;;;;;;5018547;28;20284;-77
2022/11/13 14:38:54;;;;;;;;;;;;;;;;;;5022489;28;19956;-78
2022/11/13 14:41:20;;;;;;;;;;;;;;;;;;5018555;28;19952;-77
2022/11/13 14:43:46;;;;;;;;;;;;;;;;;;5011573;28;19914;-77
2022/11/13 14:46:12;;;;;;;;;;;;;;;;;;5007603;28;20043;-76
2022/11/13 14:48:38;;;;;;;;;;;;;;;;;;5001544;28;19914;-76
2022/11/13 14:51:04;;;;;;;;;;;;;;;;;;5008030;28;20379;-77
2022/11/13 14:53:29;;;;;;;;;;;;;;;;;;4997914;28;19948;-75
2022/11/13 14:55:55;;;;;;;;;;;;;;;;;;5020386;28;19913;-76